Time;durP1;ratioP1;P1;durP2;ratioP2;P2;SDS_P1;SDS_P2;PMS_P1;PMS_P2;Temp;Humidity;BMP_temperature;BMP_pressure;BME280_temperature;BME280_humidity;BME280_pressure;Samples;Min_cycle;Max_cycle;Signal;HPM_P1;HPM_P2
2020/12/07 00:01:46;;;;;;;19.70;13.18;;;15.90;72.90;;;;;;5011338;28;20109;-70
2020/12/07 00:04:12;;;;;;;20.52;12.52;;;15.90;72.80;;;;;;5011151;28;20026;-72
2020/12/07 00:06:38;;;;;;;20.25;12.82;;;15.80;72.70;;;;;;5024393;28;20144;-71
2020/12/07 00:09:05;;;;;;;20.02;13.40;;;15.80;72.60;;;;;;5028701;28;20116;-72
2020/12/07 00:11:30;;;;;;;19.70;12.93;;;15.80;72.60;;;;;;5023672;28;20594;-72
2020/12/07 00:13:56;;;;;;;21.98;13.80;;;15.80;72.50;;;;;;5020504;28;20160;-71
2020/12/07 00:16:22;;;;;;;18.70;12.27;;;15.80;72.50;;;;;;5029020;28;20108;-72
2020/12/07 00:18:47;;;;;;;18.77;12.63;;;15.80;72.40;;;;;;5028639;28;20061;-73
2020/12/07 00:21:13;;;;;;;18.40;12.35;;;15.70;72.40;;;;;;5009676;28;20034;-72
2020/12/07 00:23:39;;;;;;;18.92;12.20;;;15.70;72.30;;;;;;5010718;28;20026;-72
2020/12/07 00:26:08;;;;;;;18.02;11.95;;;15.70;72.40;;;;;;5010621;28;20034;-72
2020/12/07 00:28:34;;;;;;;17.40;12.00;;;15.70;72.30;;;;;;4991252;28;20586;-72
2020/12/07 00:31:02;;;;;;;18.55;12.05;;;15.70;72.30;;;;;;4991474;28;20065;-72
2020/12/07 00:33:28;;;;;;;19.30;11.77;;;15.70;72.30;;;;;;4998473;28;20033;-72
2020/12/07 00:35:53;;;;;;;17.75;11.40;;;15.70;72.30;;;;;;5030046;28;20441;-72
2020/12/07 00:38:19;;;;;;;17.42;11.75;;;15.60;72.10;;;;;;5029013;28;20648;-72
2020/12/07 00:40:44;;;;;;;18.05;11.98;;;15.60;72.10;;;;;;5030098;28;20029;-72
2020/12/07 00:43:10;;;;;;;18.05;12.07;;;15.60;72.10;;;;;;5015819;28;20407;-72
2020/12/07 00:45:36;;;;;;;19.27;12.10;;;15.60;72.00;;;;;;5028459;28;20025;-72
2020/12/07 00:48:01;;;;;;;17.70;11.63;;;15.60;71.90;;;;;;5017552;28;20022;-72
2020/12/07 00:50:27;;;;;;;19.38;12.32;;;15.60;71.80;;;;;;5027440;28;20441;-73
2020/12/07 00:52:52;;;;;;;18.10;12.10;;;15.60;71.80;;;;;;5012177;28;20376;-72
2020/12/07 00:55:18;;;;;;;16.77;11.10;;;15.60;71.70;;;;;;5016451;28;20036;-71
2020/12/07 00:57:44;;;;;;;17.90;11.85;;;15.60;71.70;;;;;;5077842;22;20049;-64
2020/12/07 01:00:09;;;;;;;18.85;11.88;;;15.50;71.60;;;;;;5027953;28;20076;-63
2020/12/07 01:02:35;;;;;;;17.42;11.32;;;15.50;71.60;;;;;;5025889;28;20065;-63
2020/12/07 01:05:01;;;;;;;16.80;11.18;;;15.50;71.70;;;;;;5031122;28;20017;-62
2020/12/07 01:07:26;;;;;;;17.48;11.55;;;15.50;71.70;;;;;;5024707;28;20121;-62
2020/12/07 01:09:52;;;;;;;16.30;11.10;;;15.50;71.80;;;;;;5016599;28;20078;-65
2020/12/07 01:12:18;;;;;;;17.25;11.45;;;15.50;71.70;;;;;;5015943;28;20044;-64
2020/12/07 01:14:45;;;;;;;16.83;11.70;;;15.50;71.70;;;;;;5015900;28;20037;-66
2020/12/07 01:17:11;;;;;;;16.45;10.98;;;15.50;71.80;;;;;;5015892;28;20029;-63
2020/12/07 01:19:36;;;;;;;17.23;11.50;;;15.40;71.60;;;;;;5016377;28;20046;-64
2020/12/07 01:22:02;;;;;;;15.55;10.48;;;15.40;71.70;;;;;;5016282;28;20495;-63
2020/12/07 01:24:28;;;;;;;15.65;10.52;;;15.40;71.70;;;;;;5015572;28;20026;-66
2020/12/07 01:26:53;;;;;;;16.35;10.60;;;15.40;71.60;;;;;;5016081;28;20026;-62
2020/12/07 01:29:19;;;;;;;15.95;11.40;;;15.40;71.60;;;;;;5016618;28;20026;-63
2020/12/07 01:31:44;;;;;;;16.05;10.65;;;15.40;71.60;;;;;;5014463;28;20081;-63
2020/12/07 01:34:10;;;;;;;15.38;10.88;;;15.40;71.50;;;;;;5014223;28;20455;-65
2020/12/07 01:36:35;;;;;;;16.20;10.93;;;15.40;71.40;;;;;;5016207;28;20026;-63
2020/12/07 01:39:02;;;;;;;16.15;10.73;;;15.40;71.30;;;;;;5016273;28;20491;-64
2020/12/07 01:41:27;;;;;;;15.15;11.00;;;15.40;71.30;;;;;;5016104;28;20026;-63
2020/12/07 01:43:53;;;;;;;14.30;10.00;;;15.30;71.30;;;;;;5015545;28;20391;-64
2020/12/07 01:46:22;;;;;;;15.60;11.30;;;15.30;71.20;;;;;;5015758;28;20025;-65
2020/12/07 01:48:50;;;;;;;16.67;10.82;;;15.30;71.20;;;;;;5016630;28;20135;-63
2020/12/07 01:51:16;;;;;;;15.90;10.10;;;15.30;71.20;;;;;;5016156;28;20030;-63
2020/12/07 01:53:43;;;;;;;14.93;10.60;;;15.30;71.10;;;;;;5015229;28;20026;-62
2020/12/07 01:56:12;;;;;;;15.23;9.85;;;15.30;71.10;;;;;;5014864;28;20025;-66
2020/12/07 01:58:39;;;;;;;14.82;10.00;;;15.30;71.10;;;;;;5015768;28;20494;-62
2020/12/07 02:01:04;;;;;;;16.48;9.93;;;15.30;71.00;;;;;;5014405;28;20029;-63
2020/12/07 02:03:30;;;;;;;15.75;9.95;;;15.20;70.90;;;;;;5014250;28;20030;-64
2020/12/07 02:05:56;;;;;;;14.20;9.98;;;15.20;70.90;;;;;;5016056;28;20029;-63
2020/12/07 02:08:22;;;;;;;14.75;9.93;;;15.20;70.80;;;;;;5016256;28;20014;-63
2020/12/07 02:10:47;;;;;;;15.38;10.13;;;15.20;70.80;;;;;;5016286;28;20080;-65
2020/12/07 02:13:13;;;;;;;16.33;10.15;;;15.20;70.80;;;;;;5015112;28;20461;-64
2020/12/07 02:15:40;;;;;;;14.50;9.23;;;15.20;70.70;;;;;;5015150;28;20038;-66
2020/12/07 02:18:06;;;;;;;14.10;9.38;;;15.20;70.70;;;;;;5011299;28;20048;-66
2020/12/07 02:20:32;;;;;;;13.70;9.00;;;15.20;70.70;;;;;;5013089;28;20463;-62
2020/12/07 02:22:58;;;;;;;14.70;9.68;;;15.20;70.60;;;;;;5011804;28;20462;-63
2020/12/07 02:25:24;;;;;;;14.20;9.85;;;15.20;70.50;;;;;;5013031;28;20030;-64
2020/12/07 02:27:51;;;;;;;13.30;9.02;;;15.10;70.40;;;;;;5011030;28;20430;-65
2020/12/07 02:30:17;;;;;;;14.18;9.85;;;15.20;70.40;;;;;;5012395;28;20421;-63
2020/12/07 02:32:44;;;;;;;12.80;9.25;;;15.10;70.40;;;;;;5010620;28;20483;-64
2020/12/07 02:35:10;;;;;;;14.30;9.48;;;15.10;70.30;;;;;;5012469;28;20022;-64
2020/12/07 02:37:37;;;;;;;12.60;8.80;;;15.10;70.40;;;;;;5012156;28;20033;-65
2020/12/07 02:40:07;;;;;;;13.65;8.65;;;15.10;70.30;;;;;;5012531;28;20037;-63
2020/12/07 02:42:34;;;;;;;14.73;8.48;;;15.10;70.20;;;;;;5012211;28;20026;-63
2020/12/07 02:45:02;;;;;;;12.98;8.52;;;15.10;70.10;;;;;;5012036;28;20041;-63
2020/12/07 02:47:27;;;;;;;12.82;8.75;;;15.10;70.30;;;;;;5012091;28;20026;-65
2020/12/07 02:49:56;;;;;;;12.88;8.45;;;15.10;70.00;;;;;;5011046;28;20110;-63
2020/12/07 02:52:26;;;;;;;14.15;9.05;;;15.10;69.70;;;;;;5012092;28;20030;-65
2020/12/07 02:54:58;;;;;;;12.82;8.07;;;15.10;69.40;;;;;;5011658;28;20030;-63
2020/12/07 02:57:23;;;;;;;;;;;15.10;69.40;;;;;;5010718;28;20036;-64
2020/12/07 02:59:50;;;;;;;14.55;8.18;;;15.10;69.30;;;;;;5011795;28;20000;-63
2020/12/07 03:02:16;;;;;;;14.85;9.15;;;15.10;69.40;;;;;;5011843;28;20431;-67
2020/12/07 03:04:42;;;;;;;12.38;8.50;;;15.10;69.40;;;;;;5011431;28;20040;-63
2020/12/07 03:07:07;;;;;;;16.05;8.27;;;15.10;70.00;;;;;;5008789;28;20118;-63
2020/12/07 03:09:33;;;;;;;13.20;8.52;;;15.10;69.40;;;;;;5011695;28;20093;-63
2020/12/07 03:11:59;;;;;;;13.38;8.07;;;15.10;69.40;;;;;;5011448;28;20037;-63
2020/12/07 03:14:25;;;;;;;11.30;7.70;;;15.10;69.30;;;;;;5011089;28;20030;-63
2020/12/07 03:16:52;;;;;;;14.00;8.70;;;15.10;69.30;;;;;;5011269;28;20030;-64
2020/12/07 03:19:17;;;;;;;13.48;8.02;;;15.10;69.30;;;;;;5011760;28;20026;-63
2020/12/07 03:21:43;;;;;;;13.75;8.77;;;15.10;69.30;;;;;;5011848;28;20021;-66
2020/12/07 03:24:08;;;;;;;12.48;8.25;;;15.10;69.30;;;;;;5010589;28;20042;-63
2020/12/07 03:26:35;;;;;;;12.30;7.53;;;15.00;69.10;;;;;;5011719;28;20018;-65
2020/12/07 03:29:04;;;;;;;13.35;8.02;;;15.00;69.10;;;;;;5011688;28;20041;-64
2020/12/07 03:31:38;;;;;;;13.15;8.07;;;15.00;69.20;;;;;;5011705;28;20022;-64
2020/12/07 03:34:04;;;;;;;12.60;8.55;;;15.00;69.20;;;;;;5010608;28;20498;-66
2020/12/07 03:36:30;;;;;;;11.73;7.78;;;15.00;69.20;;;;;;5011419;28;20079;-65
2020/12/07 03:38:56;;;;;;;12.75;8.23;;;14.90;69.10;;;;;;5011672;28;20042;-63
2020/12/07 03:41:21;;;;;;;11.27;7.35;;;14.90;69.10;;;;;;5005863;28;20097;-65
2020/12/07 03:43:47;;;;;;;11.90;7.70;;;14.90;69.00;;;;;;5009214;28;20033;-63
2020/12/07 03:46:13;;;;;;;11.65;7.90;;;14.90;69.00;;;;;;5010734;28;20022;-63
2020/12/07 03:48:39;;;;;;;11.80;7.60;;;14.90;69.00;;;;;;5009979;28;20030;-63
2020/12/07 03:51:05;;;;;;;11.13;7.80;;;14.90;69.00;;;;;;5011132;28;20018;-64
2020/12/07 03:53:33;;;;;;;12.00;7.30;;;14.90;68.90;;;;;;5010065;28;20033;-63
2020/12/07 03:55:59;;;;;;;11.82;7.25;;;14.90;68.90;;;;;;5011181;28;20032;-65
2020/12/07 03:58:25;;;;;;;11.82;7.50;;;14.90;68.90;;;;;;5010572;28;20044;-63
2020/12/07 04:00:51;;;;;;;12.70;7.60;;;14.80;68.80;;;;;;5010694;28;20026;-63
2020/12/07 04:03:16;;;;;;;11.02;7.47;;;14.90;68.90;;;;;;5008401;28;20030;-64
2020/12/07 04:05:46;;;;;;;10.77;7.13;;;14.90;68.70;;;;;;5011064;28;20060;-66
2020/12/07 04:08:12;;;;;;;9.25;6.28;;;14.80;68.70;;;;;;5010159;28;20018;-63
2020/12/07 04:10:38;;;;;;;11.18;7.32;;;14.80;68.80;;;;;;5010336;28;20025;-61
2020/12/07 04:13:05;;;;;;;13.00;7.00;;;14.80;68.80;;;;;;5008555;28;20112;-63
2020/12/07 04:15:31;;;;;;;13.77;7.40;;;14.80;68.70;;;;;;5010623;28;20036;-65
2020/12/07 04:17:56;;;;;;;10.45;6.57;;;14.80;68.80;;;;;;5008643;28;20034;-66
2020/12/07 04:20:22;;;;;;;10.27;6.85;;;14.80;68.70;;;;;;5010404;28;20056;-62
2020/12/07 04:22:47;;;;;;;10.35;6.88;;;14.80;68.60;;;;;;5009824;28;20113;-63
2020/12/07 04:25:13;;;;;;;10.32;7.03;;;14.80;68.70;;;;;;5010699;28;20391;-67
2020/12/07 04:27:38;;;;;;;9.35;6.40;;;14.80;68.60;;;;;;5010344;28;20029;-63
2020/12/07 04:30:05;;;;;;;10.52;6.97;;;14.70;68.60;;;;;;5010760;28;20037;-63
2020/12/07 04:32:30;;;;;;;9.93;6.53;;;14.70;68.60;;;;;;5009709;28;20033;-63
2020/12/07 04:34:56;;;;;;;11.65;7.30;;;14.70;68.60;;;;;;5008699;28;20052;-63
2020/12/07 04:37:22;;;;;;;10.63;6.80;;;14.70;68.60;;;;;;5010289;28;20494;-63
2020/12/07 04:39:47;;;;;;;9.88;6.38;;;14.70;68.70;;;;;;5009574;28;20026;-67
2020/12/07 04:42:14;;;;;;;9.75;6.22;;;14.70;68.50;;;;;;5009614;28;20479;-63
2020/12/07 04:44:39;;;;;;;11.20;6.07;;;14.70;68.70;;;;;;5009843;28;20515;-64
2020/12/07 04:47:06;;;;;;;10.88;6.15;;;14.70;68.20;;;;;;5009474;28;20077;-62
2020/12/07 04:49:32;;;;;;;10.60;6.90;;;14.80;68.10;;;;;;5009592;28;20080;-63
2020/12/07 04:51:58;;;;;;;9.02;6.03;;;14.80;67.90;;;;;;5008953;28;20022;-67
2020/12/07 04:54:25;;;;;;;9.38;5.75;;;14.80;67.80;;;;;;5008558;28;20025;-65
2020/12/07 04:56:56;;;;;;;9.88;6.35;;;14.80;67.60;;;;;;5007972;28;20040;-63
2020/12/07 04:59:22;;;;;;;10.25;6.70;;;14.70;67.50;;;;;;5009913;28;20109;-62
2020/12/07 05:01:48;;;;;;;10.65;6.82;;;14.70;67.50;;;;;;5007537;28;20057;-63
2020/12/07 05:04:14;;;;;;;9.93;5.93;;;14.70;68.00;;;;;;5009039;28;20403;-63
2020/12/07 05:06:40;;;;;;;8.43;5.68;;;14.70;67.40;;;;;;5008614;28;20030;-65
2020/12/07 05:09:06;;;;;;;8.98;5.53;;;14.70;67.50;;;;;;5008832;28;20026;-65
2020/12/07 05:11:32;;;;;;;9.43;5.70;;;14.60;67.60;;;;;;5010219;28;20029;-66
2020/12/07 05:14:07;;;;;;;10.00;5.55;;;14.60;67.50;;;;;;5009972;28;20503;-63
2020/12/07 05:16:32;;;;;;;9.70;5.60;;;14.60;67.50;;;;;;5009938;28;20037;-64
2020/12/07 05:19:00;;;;;;;8.30;5.43;;;14.60;67.60;;;;;;5009423;28;20034;-65
2020/12/07 05:21:26;;;;;;;9.95;5.65;;;14.60;67.70;;;;;;5009400;28;20022;-63
2020/12/07 05:23:52;;;;;;;11.43;5.70;;;14.60;67.60;;;;;;5007991;28;20036;-63
2020/12/07 05:26:20;;;;;;;9.68;5.13;;;14.60;67.70;;;;;;5009628;28;20030;-65
2020/12/07 05:28:50;;;;;;;8.40;5.22;;;14.60;67.80;;;;;;5010256;28;20053;-63
2020/12/07 05:31:18;;;;;;;9.73;5.32;;;14.60;67.70;;;;;;5008328;28;20109;-62
2020/12/07 05:33:46;;;;;;;9.23;5.30;;;14.60;67.60;;;;;;5009311;28;20025;-63
2020/12/07 05:36:13;;;;;;;14.43;5.68;;;14.60;67.60;;;;;;5010077;28;20495;-66
2020/12/07 05:38:39;;;;;;;14.93;9.82;;;14.60;67.60;;;;;;4999852;28;20057;-65
2020/12/07 05:41:04;;;;;;;30.40;24.38;;;14.60;67.70;;;;;;4990428;28;20102;-64
2020/12/07 05:43:31;;;;;;;26.92;16.73;;;14.60;67.80;;;;;;4997863;28;20454;-65
2020/12/07 05:45:58;;;;;;;19.90;13.32;;;14.60;67.80;;;;;;5002852;28;20022;-67
2020/12/07 05:48:28;;;;;;;17.02;9.82;;;14.70;67.70;;;;;;4996903;28;20029;-64
2020/12/07 05:50:55;;;;;;;21.80;9.45;;;14.80;68.00;;;;;;4996789;28;20056;-64
2020/12/07 05:53:24;;;;;;;19.55;8.57;;;14.90;68.10;;;;;;5002344;28;20033;-66
2020/12/07 05:55:50;;;;;;;18.73;7.95;;;15.00;68.30;;;;;;4998496;28;20033;-64
2020/12/07 05:58:21;;;;;;;21.33;7.53;;;15.20;68.20;;;;;;4999312;28;20071;-63
2020/12/07 06:00:47;;;;;;;15.73;7.82;;;15.30;68.90;;;;;;5005029;28;20048;-64
2020/12/07 06:03:17;;;;;;;26.92;7.93;;;15.40;68.40;;;;;;5003156;28;20038;-63
2020/12/07 06:05:44;;;;;;;32.10;8.07;;;15.50;67.90;;;;;;4997833;28;20113;-63
2020/12/07 06:08:16;;;;;;;25.20;7.50;;;15.50;68.00;;;;;;5002914;28;20030;-63
2020/12/07 06:10:50;;;;;;;21.45;7.22;;;15.60;67.30;;;;;;5011670;28;20758;-62
2020/12/07 06:13:23;;;;;;;24.67;7.53;;;15.60;66.90;;;;;;5011197;28;20048;-65
2020/12/07 06:15:51;;;;;;;24.80;7.40;;;15.60;66.00;;;;;;5004821;28;20115;-64
2020/12/07 06:18:34;;;;;;;27.58;7.63;;;15.70;68.30;;;;;;4997519;28;20446;-62
2020/12/07 06:21:26;;;;;;;23.20;7.05;;;15.70;69.10;;;;;;5000647;28;20109;-64
2020/12/07 06:23:56;;;;;;;19.75;7.13;;;15.70;69.90;;;;;;4998082;28;20476;-62
2020/12/07 06:26:22;;;;;;;21.58;6.75;;;15.80;71.10;;;;;;5010763;28;20049;-66
2020/12/07 06:28:48;;;;;;;20.50;6.80;;;15.80;70.60;;;;;;5009508;28;20056;-62
2020/12/07 06:31:20;;;;;;;25.00;6.57;;;15.80;70.30;;;;;;5007230;28;20054;-62
2020/12/07 06:33:52;;;;;;;;;;;15.90;70.60;;;;;;5011819;28;20100;-63
2020/12/07 06:36:24;;;;;;;17.63;6.85;;;15.90;69.30;;;;;;5010857;28;19949;-63
2020/12/07 06:38:49;;;;;;;18.30;6.82;;;15.90;69.90;;;;;;5006365;28;20026;-63
2020/12/07 06:41:38;;;;;;;18.10;5.95;;;15.80;70.30;;;;;;5018241;28;20113;-65
2020/12/07 06:44:11;;;;;;;17.02;5.65;;;15.90;70.90;;;;;;5008094;28;20025;-63
2020/12/07 06:47:14;;;;;;;14.90;6.53;;;15.90;71.60;;;;;;5011218;28;20445;-63
2020/12/07 06:49:53;;;;;;;17.45;6.40;;;15.90;70.40;;;;;;5007194;28;20026;-64
2020/12/07 06:52:21;;;;;;;13.57;5.47;;;15.90;71.10;;;;;;5003268;28;20029;-62
2020/12/07 06:55:09;;;;;;;14.73;5.40;;;15.90;71.00;;;;;;4997501;28;20029;-63
2020/12/07 06:57:46;;;;;;;13.13;5.03;;;15.90;71.10;;;;;;4999200;28;20439;-63
2020/12/07 07:00:13;;;;;;;13.43;5.50;;;15.90;71.00;;;;;;5000782;28;20549;-64
2020/12/07 07:02:44;;;;;;;7.85;4.50;;;15.90;71.10;;;;;;5010757;28;20495;-64
2020/12/07 07:05:11;;;;;;;9.77;4.93;;;15.90;71.30;;;;;;5006470;28;20046;-62
2020/12/07 07:07:37;;;;;;;10.25;5.40;;;15.90;71.10;;;;;;4995250;28;20269;-61
2020/12/07 07:10:04;;;;;;;9.73;4.25;;;15.90;71.30;;;;;;4997390;28;20033;-62
2020/12/07 07:12:29;;;;;;;14.38;4.70;;;15.90;71.40;;;;;;4988491;28;20019;-64
2020/12/07 07:14:58;;;;;;;10.43;5.07;;;15.80;70.70;;;;;;4997384;28;20402;-62
2020/12/07 07:17:30;;;;;;;18.10;4.75;;;15.80;70.60;;;;;;5008291;28;20033;-61
2020/12/07 07:19:56;;;;;;;51.92;33.00;;;15.80;70.10;;;;;;5009083;28;20034;-62
2020/12/07 07:22:22;;;;;;;41.55;30.92;;;15.80;70.40;;;;;;5011444;28;20460;-62
2020/12/07 07:30:11;;;;;;;17.50;9.02;;;15.80;69.80;;;;;;5011606;28;20443;-62
2020/12/07 07:32:40;;;;;;;18.42;8.43;;;15.70;69.80;;;;;;5011801;28;20565;-61
2020/12/07 07:35:07;;;;;;;12.77;7.63;;;15.70;69.90;;;;;;5011455;28;20040;-63
2020/12/07 07:37:32;;;;;;;14.25;7.35;;;15.80;69.90;;;;;;5010581;28;20025;-61
2020/12/07 07:40:08;;;;;;;13.60;7.28;;;15.80;70.00;;;;;;5012050;28;20091;-62
2020/12/07 07:42:50;;;;;;;12.90;7.05;;;15.80;70.80;;;;;;5005771;28;20037;-63
2020/12/07 07:45:22;;;;;;;13.15;6.47;;;15.80;70.30;;;;;;5001270;28;20156;-62
2020/12/07 08:17:57;;;;;;;11.32;6.25;;;15.50;67.90;;;;;;5011583;28;20064;-62
2020/12/07 08:20:26;;;;;;;12.55;6.38;;;15.50;68.20;;;;;;5009927;28;20511;-62
2020/12/07 08:23:06;;;;;;;13.35;6.38;;;15.50;67.80;;;;;;5011056;28;20544;-62
2020/12/07 08:25:40;;;;;;;11.15;5.90;;;15.50;67.30;;;;;;5011236;28;20487;-63
2020/12/07 08:28:30;;;;;;;11.02;5.57;;;15.50;68.00;;;;;;5011120;28;20053;-62
2020/12/07 08:31:09;;;;;;;9.38;5.72;;;15.40;66.50;;;;;;5009695;28;20032;-62
2020/12/07 08:33:38;;;;;;;10.20;5.60;;;15.40;68.00;;;;;;5009571;28;20393;-62
2020/12/07 08:36:05;;;;;;;11.10;5.70;;;15.50;67.80;;;;;;5009589;28;20506;-63
2020/12/07 08:38:35;;;;;;;8.95;5.22;;;15.40;66.00;;;;;;5011061;28;20145;-62
2020/12/07 08:41:12;;;;;;;9.35;5.40;;;15.40;66.60;;;;;;5010952;28;20098;-62
2020/12/07 08:43:40;;;;;;;10.13;5.05;;;15.40;67.30;;;;;;5009249;28;20084;-62
2020/12/07 08:46:08;;;;;;;11.38;5.03;;;15.50;67.70;;;;;;5010886;28;20025;-63
2020/12/07 08:48:34;;;;;;;10.55;4.93;;;15.50;67.20;;;;;;5010801;28;20415;-62
2020/12/07 08:51:00;;;;;;;10.82;5.10;;;15.50;67.70;;;;;;5010808;28;20029;-63
2020/12/07 08:53:25;;;;;;;8.70;4.70;;;15.50;67.00;;;;;;5006440;28;20021;-63
2020/12/07 08:55:51;;;;;;;10.68;4.97;;;15.60;67.60;;;;;;5001231;28;20087;-63
2020/12/07 08:58:17;;;;;;;10.95;5.05;;;15.70;67.70;;;;;;5000555;28;20030;-61
2020/12/07 09:00:42;;;;;;;8.95;4.97;;;15.70;68.10;;;;;;4996759;28;20049;-62
2020/12/07 09:03:08;;;;;;;10.93;5.47;;;15.70;68.20;;;;;;4997302;28;20065;-61
2020/12/07 09:05:33;;;;;;;8.48;4.65;;;15.70;67.00;;;;;;4999101;28;20029;-61
2020/12/07 09:07:59;;;;;;;9.13;4.85;;;15.70;67.50;;;;;;4995625;28;20018;-61
2020/12/07 09:10:25;;;;;;;6.70;4.35;;;15.70;67.10;;;;;;4997108;28;20030;-63
2020/12/07 09:12:51;;;;;;;8.70;4.60;;;15.70;67.80;;;;;;4999898;28;20022;-63
2020/12/07 09:15:16;;;;;;;21.55;5.18;;;15.70;67.50;;;;;;5008873;28;20041;-62
2020/12/07 09:17:42;;;;;;;12.50;6.10;;;15.70;68.00;;;;;;4996136;28;20161;-62
2020/12/07 09:20:07;;;;;;;18.13;10.07;;;15.80;68.50;;;;;;4997218;28;20037;-63
2020/12/07 09:22:33;;;;;;;13.70;8.10;;;15.80;69.10;;;;;;4996638;28;20040;-63
2020/12/07 09:24:58;;;;;;;12.10;7.32;;;15.80;69.50;;;;;;4997893;28;20347;-61
2020/12/07 09:27:24;;;;;;;12.65;7.75;;;15.80;69.30;;;;;;5008498;28;20395;-62
2020/12/07 09:29:49;;;;;;;14.98;8.05;;;15.70;67.70;;;;;;5014458;28;20029;-62
2020/12/07 09:32:15;;;;;;;12.13;6.97;;;15.70;67.30;;;;;;5014360;28;20072;-65
2020/12/07 09:34:40;;;;;;;10.80;6.65;;;15.70;67.90;;;;;;5014124;28;20080;-62
2020/12/07 09:37:06;;;;;;;11.60;7.05;;;15.70;67.70;;;;;;5011315;28;20029;-65
2020/12/07 09:39:31;;;;;;;10.60;5.97;;;15.70;68.10;;;;;;5012346;28;20030;-62
2020/12/07 09:41:57;;;;;;;10.95;5.88;;;15.70;68.00;;;;;;5012796;28;20109;-62
2020/12/07 09:44:24;;;;;;;9.23;5.60;;;15.70;67.50;;;;;;5012593;28;20445;-62
2020/12/07 09:46:52;;;;;;;8.93;5.60;;;15.70;67.00;;;;;;5012848;28;20033;-63
2020/12/07 09:49:18;;;;;;;9.05;5.38;;;15.60;67.90;;;;;;5014154;28;20482;-63
2020/12/07 09:51:44;;;;;;;8.27;5.35;;;15.70;68.10;;;;;;5012868;28;20034;-63
2020/12/07 09:54:09;;;;;;;9.93;5.63;;;15.70;68.00;;;;;;5012569;28;20030;-66
2020/12/07 09:56:35;;;;;;;9.10;5.40;;;15.60;67.20;;;;;;5012625;28;20046;-63
2020/12/07 09:59:00;;;;;;;8.98;5.53;;;15.60;67.30;;;;;;5014509;28;20491;-62
2020/12/07 10:01:26;;;;;;;10.07;5.68;;;15.60;66.60;;;;;;5013933;28;20033;-63
2020/12/07 10:03:51;;;;;;;8.57;5.50;;;15.50;66.90;;;;;;5012361;28;20053;-63
2020/12/07 10:06:17;;;;;;;8.27;5.28;;;15.50;66.80;;;;;;5013807;28;20026;-63
2020/12/07 10:08:42;;;;;;;8.27;5.25;;;15.50;66.70;;;;;;5013777;28;20394;-65
2020/12/07 10:11:08;;;;;;;9.02;5.20;;;15.50;67.40;;;;;;5013759;28;20061;-65
2020/12/07 10:13:33;;;;;;;7.63;4.90;;;15.50;67.10;;;;;;5012147;28;20488;-62
2020/12/07 10:15:59;;;;;;;8.50;4.82;;;15.50;67.10;;;;;;5013631;28;20092;-62
2020/12/07 10:18:24;;;;;;;7.53;5.05;;;15.50;67.40;;;;;;5012290;28;20032;-64
2020/12/07 10:20:50;;;;;;;7.18;4.68;;;15.50;67.30;;;;;;5013618;28;20109;-63
2020/12/07 10:23:17;;;;;;;9.40;5.20;;;15.50;67.30;;;;;;5013240;28;20037;-62
2020/12/07 10:25:50;;;;;;;8.50;4.97;;;15.40;67.10;;;;;;5013597;28;20041;-63
2020/12/07 10:28:15;;;;;;;9.27;4.90;;;15.40;66.80;;;;;;5012493;28;20080;-62
2020/12/07 10:30:41;;;;;;;7.68;4.88;;;15.40;67.00;;;;;;5013386;28;20030;-62
2020/12/07 10:33:07;;;;;;;7.38;4.85;;;15.40;67.10;;;;;;5013287;28;20145;-66
2020/12/07 10:35:32;;;;;;;7.63;5.10;;;15.40;67.70;;;;;;5013618;28;20072;-62
2020/12/07 10:37:58;;;;;;;8.27;5.57;;;15.40;66.80;;;;;;5012515;28;20358;-64
2020/12/07 10:40:23;;;;;;;7.45;4.82;;;15.40;67.00;;;;;;5013537;28;20034;-62
2020/12/07 10:42:49;;;;;;;7.47;4.53;;;15.40;66.90;;;;;;5012837;28;20156;-65
2020/12/07 10:45:14;;;;;;;6.97;4.75;;;15.40;66.80;;;;;;5013263;28;20032;-62
2020/12/07 10:47:40;;;;;;;8.10;4.75;;;15.30;66.80;;;;;;5013257;28;20022;-63
2020/12/07 10:50:05;;;;;;;8.18;4.70;;;15.40;66.90;;;;;;5013234;28;20026;-63
2020/12/07 10:52:31;;;;;;;7.65;4.40;;;15.40;66.70;;;;;;5013165;28;20026;-69
2020/12/07 10:54:57;;;;;;;7.13;4.72;;;15.40;66.60;;;;;;5012969;28;20041;-63
2020/12/07 10:57:23;;;;;;;7.05;4.60;;;15.40;66.90;;;;;;5013013;28;20026;-63
2020/12/07 10:59:48;;;;;;;7.75;4.45;;;15.40;67.00;;;;;;5012947;28;20084;-63
2020/12/07 11:02:14;;;;;;;7.43;4.60;;;15.30;66.70;;;;;;5011646;28;20506;-63
2020/12/07 11:04:39;;;;;;;6.75;4.70;;;15.30;66.50;;;;;;5012430;28;20465;-65
2020/12/07 11:07:10;;;;;;;108.38;45.05;;;15.30;66.80;;;;;;5012599;28;20041;-61
2020/12/07 11:09:36;;;;;;;27.05;13.60;;;15.30;66.30;;;;;;5013072;28;20022;-64
2020/12/07 11:12:04;;;;;;;12.80;7.28;;;15.30;66.60;;;;;;5012666;28;20109;-63
2020/12/07 11:14:30;;;;;;;10.70;6.18;;;15.30;66.40;;;;;;5012283;28;20022;-64
2020/12/07 11:16:58;;;;;;;9.90;6.13;;;15.20;66.20;;;;;;5011126;28;20029;-64
2020/12/07 11:19:24;;;;;;;9.40;5.53;;;15.30;66.40;;;;;;5011134;28;20393;-66
2020/12/07 11:21:49;;;;;;;8.35;4.88;;;15.20;66.20;;;;;;5012373;28;20033;-66
2020/12/07 11:24:15;;;;;;;8.48;5.05;;;15.20;66.30;;;;;;5012067;28;20030;-63
2020/12/07 11:26:40;;;;;;;8.65;5.13;;;15.20;65.80;;;;;;5010963;28;20487;-63
2020/12/07 11:29:06;;;;;;;8.63;4.65;;;15.20;65.80;;;;;;5010904;28;20069;-65
2020/12/07 11:31:31;;;;;;;8.48;4.72;;;15.20;65.80;;;;;;5010941;28;20025;-65
2020/12/07 11:33:57;;;;;;;7.53;4.70;;;15.20;66.00;;;;;;5010729;28;20387;-63
2020/12/07 11:36:22;;;;;;;7.80;4.85;;;15.20;65.30;;;;;;5012486;28;20038;-65
2020/12/07 11:41:35;;;;;;;7.25;4.55;;;15.20;65.60;;;;;;5012309;28;20036;-63
2020/12/07 11:44:09;;;;;;;6.95;4.05;;;15.20;66.00;;;;;;5010486;28;20021;-65
2020/12/07 11:46:59;;;;;;;13.75;8.65;;;15.20;66.10;;;;;;5012011;28;20026;-64
2020/12/07 11:49:25;;;;;;;8.48;5.30;;;15.20;65.80;;;;;;5012091;28;20072;-63
2020/12/07 11:51:51;;;;;;;8.68;5.57;;;15.20;65.30;;;;;;5010549;28;20030;-63
2020/12/07 11:54:16;;;;;;;9.10;5.13;;;15.10;65.40;;;;;;5010211;28;20021;-63
2020/12/07 11:56:42;;;;;;;24.25;19.30;;;15.20;65.60;;;;;;5011877;28;20225;-66
2020/12/07 11:59:08;;;;;;;11.40;7.13;;;15.10;65.00;;;;;;5011918;28;20495;-63
2020/12/07 12:01:34;;;;;;;8.90;5.50;;;15.10;65.10;;;;;;5010442;28;20036;-64
2020/12/07 12:04:06;;;;;;;25.10;18.60;;;15.10;65.30;;;;;;5011359;28;20116;-63
2020/12/07 12:06:34;;;;;;;10.10;7.03;;;15.10;65.20;;;;;;5011514;28;20444;-63
2020/12/07 12:09:04;;;;;;;9.85;7.13;;;15.10;64.70;;;;;;5011630;28;20032;-65
2020/12/07 12:11:36;;;;;;;8.18;5.40;;;15.10;65.00;;;;;;5011559;28;20018;-63
2020/12/07 12:14:03;;;;;;;10.27;6.70;;;15.10;65.10;;;;;;5009973;28;20029;-63
2020/12/07 12:16:29;;;;;;;7.53;5.07;;;15.10;64.80;;;;;;5011393;28;20104;-62
2020/12/07 12:18:56;;;;;;;14.95;10.98;;;15.10;65.30;;;;;;5010096;28;20072;-63
2020/12/07 12:21:23;;;;;;;9.25;6.00;;;15.10;65.10;;;;;;5011327;28;20056;-65
2020/12/07 12:23:49;;;;;;;7.70;5.18;;;15.10;64.80;;;;;;5011014;28;20048;-64
2020/12/07 12:26:15;;;;;;;8.80;4.47;;;15.10;65.30;;;;;;5009910;28;20025;-63
2020/12/07 12:28:41;;;;;;;7.28;4.40;;;15.10;65.30;;;;;;5011459;28;20141;-63
2020/12/07 12:31:07;;;;;;;7.15;4.68;;;15.10;64.90;;;;;;5009950;28;20025;-64
2020/12/07 12:33:32;;;;;;;6.93;4.20;;;15.20;65.00;;;;;;5009591;28;20026;-64
2020/12/07 12:35:58;;;;;;;7.43;4.10;;;15.20;64.50;;;;;;5011113;28;20037;-64
2020/12/07 12:38:24;;;;;;;7.53;4.63;;;15.20;64.50;;;;;;5011060;28;20030;-65
2020/12/07 12:40:50;;;;;;;102.40;84.53;;;15.10;64.30;;;;;;5009776;28;20399;-66
2020/12/07 12:43:15;;;;;;;28.63;24.52;;;15.20;64.20;;;;;;5010167;28;20034;-63
2020/12/07 12:45:41;;;;;;;11.32;8.35;;;15.20;64.40;;;;;;5011030;28;20390;-64
2020/12/07 12:48:06;;;;;;;8.13;5.88;;;15.20;63.90;;;;;;5010896;28;20033;-66
2020/12/07 12:50:32;;;;;;;8.90;6.10;;;15.10;64.00;;;;;;5010914;28;20029;-65
2020/12/07 12:52:57;;;;;;;9.93;6.93;;;15.10;64.60;;;;;;5010629;28;20069;-63
2020/12/07 12:55:23;;;;;;;7.97;5.60;;;15.10;64.60;;;;;;5010869;28;20022;-63
2020/12/07 12:57:48;;;;;;;7.47;4.85;;;15.10;64.30;;;;;;5010665;28;20061;-63
2020/12/07 13:00:14;;;;;;;7.95;4.93;;;15.10;64.20;;;;;;5010743;28;20025;-65
2020/12/07 13:02:40;;;;;;;7.30;4.45;;;15.10;64.70;;;;;;5010369;28;20053;-63
2020/12/07 13:05:05;;;;;;;6.82;4.30;;;15.10;64.40;;;;;;5010596;28;20026;-64
2020/12/07 13:07:30;;;;;;;8.07;4.65;;;15.10;64.90;;;;;;5010667;28;20380;-63
2020/12/07 13:09:56;;;;;;;7.03;4.25;;;15.10;64.30;;;;;;5010762;28;20034;-66
2020/12/07 13:12:22;;;;;;;6.18;3.72;;;15.10;64.70;;;;;;5009402;28;20574;-63
2020/12/07 13:14:47;;;;;;;6.80;4.03;;;15.10;64.50;;;;;;5010512;28;20489;-64
2020/12/07 13:17:16;;;;;;;6.30;3.70;;;15.00;64.80;;;;;;5010745;28;20018;-64